sensor_id;sensor_type;location;lat;lon;timestamp;pressure;altitude;pressure_sealevel;temperature;humidity
63907;BME280;50075;49.484;11.238;2023-12-29T00:00:38;97927.44;;;9.81;100.00
63907;BME280;50075;49.484;11.238;2023-12-29T00:03:05;97938.66;;;10.03;100.00
63907;BME280;50075;49.484;11.238;2023-12-29T00:05:30;97929.19;;;9.71;100.00
63907;BME280;50075;49.484;11.238;2023-12-29T00:07:55;97929.16;;;9.77;100.00
63907;BME280;50075;49.484;11.238;2023-12-29T00:10:21;97934.28;;;10.23;100.00
63907;BME280;50075;49.484;11.238;2023-12-29T00:12:46;97935.22;;;10.05;100.00
63907;BME280;50075;49.484;11.238;2023-12-29T00:15:11;97936.00;;;10.35;100.00
63907;BME280;50075;49.484;11.238;2023-12-29T00:17:37;97929.97;;;10.09;100.00
63907;BME280;50075;49.484;11.238;2023-12-29T00:20:06;97936.06;;;9.93;100.00
63907;BME280;50075;49.484;11.238;2023-12-29T00:22:33;97936.06;;;10.11;100.00
63907;BME280;50075;49.484;11.238;2023-12-29T00:24:58;97936.91;;;10.12;100.00
63907;BME280;50075;49.484;11.238;2023-12-29T00:27:23;97937.72;;;10.29;100.00
63907;BME280;50075;49.484;11.238;2023-12-29T00:29:49;97951.59;;;10.25;100.00
63907;BME280;50075;49.484;11.238;2023-12-29T00:32:14;97948.13;;;10.33;100.00
63907;BME280;50075;49.484;11.238;2023-12-29T00:34:40;97944.69;;;10.21;100.00
63907;BME280;50075;49.484;11.238;2023-12-29T00:37:05;97943.84;;;10.03;100.00
63907;BME280;50075;49.484;11.238;2023-12-29T00:39:31;97941.31;;;9.74;100.00
63907;BME280;50075;49.484;11.238;2023-12-29T00:42:06;97932.66;;;9.48;100.00
63907;BME280;50075;49.484;11.238;2023-12-29T00:44:32;97937.81;;;9.39;100.00
63907;BME280;50075;49.484;11.238;2023-12-29T00:46:59;97937.84;;;9.45;100.00
63907;BME280;50075;49.484;11.238;2023-12-29T00:49:24;97935.25;;;9.34;100.00
63907;BME280;50075;49.484;11.238;2023-12-29T00:51:49;97935.22;;;9.61;100.00
63907;BME280;50075;49.484;11.238;2023-12-29T00:54:15;97930.03;;;9.73;100.00
63907;BME280;50075;49.484;11.238;2023-12-29T00:56:40;97929.19;;;9.60;100.00
63907;BME280;50075;49.484;11.238;2023-12-29T00:59:06;97924.00;;;9.71;100.00
63907;BME280;50075;49.484;11.238;2023-12-29T01:01:35;97923.97;;;9.77;100.00
63907;BME280;50075;49.484;11.238;2023-12-29T01:04:01;97915.31;;;9.69;100.00
63907;BME280;50075;49.484;11.238;2023-12-29T01:06:27;97909.25;;;9.76;100.00
63907;BME280;50075;49.484;11.238;2023-12-29T01:08:52;97907.53;;;9.85;100.00
63907;BME280;50075;49.484;11.238;2023-12-29T01:11:17;97905.78;;;9.81;100.00
63907;BME280;50075;49.484;11.238;2023-12-29T01:13:43;97902.34;;;9.69;100.00
63907;BME280;50075;49.484;11.238;2023-12-29T01:16:08;97903.22;;;9.71;100.00
63907;BME280;50075;49.484;11.238;2023-12-29T01:18:33;97904.94;;;9.72;100.00
63907;BME280;50075;49.484;11.238;2023-12-29T01:20:59;97903.22;;;9.74;100.00
63907;BME280;50075;49.484;11.238;2023-12-29T01:23:24;97912.72;;;9.88;100.00
63907;BME280;50075;49.484;11.238;2023-12-29T01:25:49;97910.16;;;9.79;100.00
63907;BME280;50075;49.484;11.238;2023-12-29T01:28:14;97900.59;;;9.82;100.00
63907;BME280;50075;49.484;11.238;2023-12-29T01:30:40;97904.91;;;9.94;100.00
63907;BME280;50075;49.484;11.238;2023-12-29T01:33:05;97905.78;;;9.81;100.00
63907;BME280;50075;49.484;11.238;2023-12-29T01:35:31;97906.59;;;10.12;100.00
63907;BME280;50075;49.484;11.238;2023-12-29T01:37:56;97908.25;;;10.38;100.00
63907;BME280;50075;49.484;11.238;2023-12-29T01:40:22;97897.03;;;10.19;100.00
63907;BME280;50075;49.484;11.238;2023-12-29T01:42:47;97905.69;;;10.21;100.00
63907;BME280;50075;49.484;11.238;2023-12-29T01:45:21;97903.97;;;10.17;100.00
63907;BME280;50075;49.484;11.238;2023-12-29T01:47:47;97902.28;;;10.10;100.00
63907;BME280;50075;49.484;11.238;2023-12-29T01:50:13;97904.91;;;9.94;100.00
63907;BME280;50075;49.484;11.238;2023-12-29T01:52:39;97903.16;;;10.06;100.00
63907;BME280;50075;49.484;11.238;2023-12-29T01:55:06;97898.75;;;10.23;100.00
63907;BME280;50075;49.484;11.238;2023-12-29T01:57:31;97903.09;;;10.26;100.00
63907;BME280;50075;49.484;11.238;2023-12-29T02:00:00;97893.56;;;10.19;100.00
63907;BME280;50075;49.484;11.238;2023-12-29T02:02:25;97881.41;;;10.32;100.00
63907;BME280;50075;49.484;11.238;2023-12-29T02:04:51;97873.66;;;10.22;100.00
63907;BME280;50075;49.484;11.238;2023-12-29T02:07:17;97866.66;;;10.35;100.00
63907;BME280;50075;49.484;11.238;2023-12-29T02:09:44;97870.19;;;10.20;100.00
63907;BME280;50075;49.484;11.238;2023-12-29T02:12:09;97873.72;;;9.94;100.00
63907;BME280;50075;49.484;11.238;2023-12-29T02:14:35;97872.91;;;9.83;100.00
63907;BME280;50075;49.484;11.238;2023-12-29T02:19:49;97872.84;;;9.95;100.00
63907;BME280;50075;49.484;11.238;2023-12-29T02:22:15;97875.44;;;9.97;100.00
63907;BME280;50075;49.484;11.238;2023-12-29T02:24:48;97872.84;;;9.95;100.00
63907;BME280;50075;49.484;11.238;2023-12-29T02:32:31;97863.38;;;9.83;100.00
63907;BME280;50075;49.484;11.238;2023-12-29T02:34:59;97877.22;;;9.79;100.00
63907;BME280;50075;49.484;11.238;2023-12-29T02:37:26;97878.94;;;9.80;100.00
63907;BME280;50075;49.484;11.238;2023-12-29T02:39:52;97872.91;;;9.73;100.00
63907;BME280;50075;49.484;11.238;2023-12-29T02:42:17;97875.50;;;9.78;100.00
63907;BME280;50075;49.484;11.238;2023-12-29T02:44:43;97874.66;;;9.57;100.00
63907;BME280;50075;49.484;11.238;2023-12-29T02:47:08;97876.34;;;9.83;100.00
63907;BME280;50075;49.484;11.238;2023-12-29T02:49:33;97877.25;;;9.67;100.00
63907;BME280;50075;49.484;11.238;2023-12-29T02:51:59;97874.63;;;9.81;100.00
63907;BME280;50075;49.484;11.238;2023-12-29T02:54:24;97870.34;;;9.28;100.00
63907;BME280;50075;49.484;11.238;2023-12-29T02:56:49;97870.34;;;9.41;100.00
63907;BME280;50075;49.484;11.238;2023-12-29T02:59:15;97860.81;;;9.60;100.00
63907;BME280;50075;49.484;11.238;2023-12-29T03:01:40;97864.31;;;9.31;100.00
63907;BME280;50075;49.484;11.238;2023-12-29T03:04:05;97859.97;;;9.33;100.00
63907;BME280;50075;49.484;11.238;2023-12-29T03:06:31;97862.56;;;9.17;100.00
63907;BME280;50075;49.484;11.238;2023-12-29T03:08:56;97854.78;;;9.11;100.00
63907;BME280;50075;49.484;11.238;2023-12-29T03:11:21;97845.28;;;9.29;100.00
63907;BME280;50075;49.484;11.238;2023-12-29T03:13:47;97835.75;;;9.28;100.00
63907;BME280;50075;49.484;11.238;2023-12-29T03:16:12;97824.50;;;9.43;100.00
63907;BME280;50075;49.484;11.238;2023-12-29T03:18:37;97834.91;;;9.33;100.00
63907;BME280;50075;49.484;11.238;2023-12-29T03:21:05;97831.41;;;9.42;100.00
63907;BME280;50075;49.484;11.238;2023-12-29T03:23:31;97815.00;;;9.26;100.00
63907;BME280;50075;49.484;11.238;2023-12-29T03:25:56;97823.66;;;9.13;100.00
63907;BME280;50075;49.484;11.238;2023-12-29T03:28:22;97821.94;;;9.11;100.00
63907;BME280;50075;49.484;11.238;2023-12-29T03:30:47;97820.16;;;9.20;100.00
63907;BME280;50075;49.484;11.238;2023-12-29T03:33:12;97814.13;;;8.97;100.00
63907;BME280;50075;49.484;11.238;2023-12-29T03:35:38;97818.47;;;9.25;100.00
63907;BME280;50075;49.484;11.238;2023-12-29T03:38:03;97818.47;;;9.25;100.00
63907;BME280;50075;49.484;11.238;2023-12-29T03:40:29;97815.84;;;9.20;100.00
63907;BME280;50075;49.484;11.238;2023-12-29T03:42:54;97816.69;;;9.47;100.00
63907;BME280;50075;49.484;11.238;2023-12-29T03:45:19;97819.28;;;9.38;100.00
63907;BME280;50075;49.484;11.238;2023-12-29T03:47:45;97820.13;;;9.57;100.00
63907;BME280;50075;49.484;11.238;2023-12-29T03:50:10;97809.78;;;9.49;100.00
63907;BME280;50075;49.484;11.238;2023-12-29T03:52:35;97808.94;;;9.44;100.00
63907;BME280;50075;49.484;11.238;2023-12-29T03:55:01;97815.78;;;9.62;100.00
63907;BME280;50075;49.484;11.238;2023-12-29T03:57:26;97808.03;;;9.44;100.00
63907;BME280;50075;49.484;11.238;2023-12-29T03:59:51;97799.41;;;9.26;100.00
63907;BME280;50075;49.484;11.238;2023-12-29T04:02:16;97810.66;;;9.17;100.00
63907;BME280;50075;49.484;11.238;2023-12-29T04:04:43;97804.63;;;8.98;100.00
63907;BME280;50075;49.484;11.238;2023-12-29T04:07:08;97802.03;;;9.04;100.00
63907;BME280;50075;49.484;11.238;2023-12-29T04:09:33;97802.03;;;8.92;100.00
63907;BME280;50075;49.484;11.238;2023-12-29T04:11:59;97803.78;;;9.01;100.00
63907;BME280;50075;49.484;11.238;2023-12-29T04:14:24;97809.78;;;8.87;100.00
63907;BME280;50075;49.484;11.238;2023-12-29T04:16:49;97814.13;;;8.66;100.00
63907;BME280;50075;49.484;11.238;2023-12-29T04:19:14;97821.91;;;8.74;100.00
63907;BME280;50075;49.484;11.238;2023-12-29T04:21:40;97818.44;;;8.84;100.00
63907;BME280;50075;49.484;11.238;2023-12-29T04:24:05;97814.13;;;8.76;100.00
63907;BME280;50075;49.484;11.238;2023-12-29T04:26:35;97815.84;;;8.58;100.00
63907;BME280;50075;49.484;11.238;2023-12-29T04:29:01;97807.19;;;8.57;100.00
63907;BME280;50075;49.484;11.238;2023-12-29T04:31:27;97814.91;;;8.48;100.00
63907;BME280;50075;49.484;11.238;2023-12-29T04:33:52;97804.56;;;8.50;100.00
63907;BME280;50075;49.484;11.238;2023-12-29T04:36:17;97809.69;;;8.42;100.00
63907;BME280;50075;49.484;11.238;2023-12-29T04:38:43;97812.31;;;8.45;100.00
63907;BME280;50075;49.484;11.238;2023-12-29T04:41:08;97802.78;;;8.36;100.00
63907;BME280;50075;49.484;11.238;2023-12-29T04:43:33;97801.91;;;8.36;100.00
63907;BME280;50075;49.484;11.238;2023-12-29T04:45:59;97808.81;;;8.29;100.00
63907;BME280;50075;49.484;11.238;2023-12-29T04:48:25;97808.81;;;8.23;100.00
63907;BME280;50075;49.484;11.238;2023-12-29T04:50:50;97806.19;;;8.24;100.00
63907;BME280;50075;49.484;11.238;2023-12-29T04:53:16;97809.66;;;8.21;100.00
63907;BME280;50075;49.484;11.238;2023-12-29T04:55:41;97812.22;;;8.15;100.00
63907;BME280;50075;49.484;11.238;2023-12-29T04:58:06;97818.34;;;8.39;100.00
63907;BME280;50075;49.484;11.238;2023-12-29T05:00:32;97817.47;;;8.39;100.00
63907;BME280;50075;49.484;11.238;2023-12-29T05:02:57;97825.25;;;8.39;100.00
63907;BME280;50075;49.484;11.238;2023-12-29T05:05:22;97831.34;;;8.49;100.00
63907;BME280;50075;49.484;11.238;2023-12-29T05:07:48;97827.00;;;8.51;100.00
63907;BME280;50075;49.484;11.238;2023-12-29T05:10:13;97830.47;;;8.48;100.00
63907;BME280;50075;49.484;11.238;2023-12-29T05:12:38;97817.47;;;8.39;100.00
63907;BME280;50075;49.484;11.238;2023-12-29T05:15:04;97806.25;;;8.33;100.00
63907;BME280;50075;49.484;11.238;2023-12-29T05:17:30;97812.22;;;8.12;100.00
63907;BME280;50075;49.484;11.238;2023-12-29T05:19:55;97810.53;;;8.24;100.00
63907;BME280;50075;49.484;11.238;2023-12-29T05:22:20;97812.28;;;8.32;100.00
63907;BME280;50075;49.484;11.238;2023-12-29T05:24:46;97818.34;;;8.42;100.00
63907;BME280;50075;49.484;11.238;2023-12-29T05:27:11;97808.84;;;8.38;100.00
63907;BME280;50075;49.484;11.238;2023-12-29T05:29:37;97816.56;;;8.24;100.00
63907;BME280;50075;49.484;11.238;2023-12-29T05:32:02;97820.81;;;8.06;100.00
63907;BME280;50075;49.484;11.238;2023-12-29T05:34:28;97806.16;;;8.07;100.00
63907;BME280;50075;49.484;11.238;2023-12-29T05:36:53;97812.22;;;8.15;100.00
63907;BME280;50075;49.484;11.238;2023-12-29T05:39:18;97817.38;;;8.09;100.00
63907;BME280;50075;49.484;11.238;2023-12-29T05:41:44;97816.47;;;8.02;100.00
63907;BME280;50075;49.484;11.238;2023-12-29T05:44:09;97823.34;;;7.89;100.00
63907;BME280;50075;49.484;11.238;2023-12-29T05:46:35;97825.94;;;7.88;100.00
63907;BME280;50075;49.484;11.238;2023-12-29T05:49:00;97825.03;;;7.86;100.00
63907;BME280;50075;49.484;11.238;2023-12-29T05:51:25;97829.31;;;7.79;100.00
63907;BME280;50075;49.484;11.238;2023-12-29T05:53:51;97822.38;;;7.68;100.00
63907;BME280;50075;49.484;11.238;2023-12-29T05:56:16;97824.13;;;7.79;100.00
63907;BME280;50075;49.484;11.238;2023-12-29T05:58:42;97823.28;;;7.75;100.00
63907;BME280;50075;49.484;11.238;2023-12-29T06:01:08;97813.75;;;7.69;100.00
63907;BME280;50075;49.484;11.238;2023-12-29T06:03:34;97818.00;;;7.61;100.00
63907;BME280;50075;49.484;11.238;2023-12-29T06:05:59;97814.53;;;7.54;100.00
63907;BME280;50075;49.484;11.238;2023-12-29T06:08:25;97810.28;;;7.64;100.00
63907;BME280;50075;49.484;11.238;2023-12-29T06:10:50;97809.34;;;7.54;100.00
63907;BME280;50075;49.484;11.238;2023-12-29T06:13:15;97808.53;;;7.62;100.00
63907;BME280;50075;49.484;11.238;2023-12-29T06:15:41;97803.25;;;7.48;100.00
63907;BME280;50075;49.484;11.238;2023-12-29T06:18:06;97792.09;;;7.53;100.00
63907;BME280;50075;49.484;11.238;2023-12-29T06:20:31;97796.34;;;7.45;100.00
63907;BME280;50075;49.484;11.238;2023-12-29T06:22:57;97800.69;;;7.48;100.00
63907;BME280;50075;49.484;11.238;2023-12-29T06:25:22;97786.88;;;7.49;100.00
63907;BME280;50075;49.484;11.238;2023-12-29T06:27:48;97781.69;;;7.49;100.00
63907;BME280;50075;49.484;11.238;2023-12-29T06:30:13;97786.03;;;7.53;100.00
63907;BME280;50075;49.484;11.238;2023-12-29T06:32:39;97779.88;;;7.31;100.00
63907;BME280;50075;49.484;11.238;2023-12-29T06:35:05;97777.22;;;7.23;100.00
63907;BME280;50075;49.484;11.238;2023-12-29T06:37:31;97786.69;;;7.18;100.00
63907;BME280;50075;49.484;11.238;2023-12-29T06:39:57;97780.63;;;7.12;100.00
63907;BME280;50075;49.484;11.238;2023-12-29T06:42:22;97784.03;;;7.08;100.00
63907;BME280;50075;49.484;11.238;2023-12-29T06:44:48;97785.75;;;7.09;100.00
63907;BME280;50075;49.484;11.238;2023-12-29T06:47:13;97787.56;;;7.20;100.00
63907;BME280;50075;49.484;11.238;2023-12-29T06:49:39;97786.94;;;7.58;100.00
63907;BME280;50075;49.484;11.238;2023-12-29T06:52:05;97790.50;;;7.77;100.00
63907;BME280;50075;49.484;11.238;2023-12-29T06:54:31;97787.03;;;7.77;100.00
63907;BME280;50075;49.484;11.238;2023-12-29T06:56:56;97790.50;;;7.82;100.00
63907;BME280;50075;49.484;11.238;2023-12-29T06:59:22;97789.69;;;7.95;100.00
63907;BME280;50075;49.484;11.238;2023-12-29T07:01:48;97800.06;;;7.99;100.00
63907;BME280;50075;49.484;11.238;2023-12-29T07:04:13;97801.00;;;8.10;100.00
63907;BME280;50075;49.484;11.238;2023-12-29T07:06:40;97804.47;;;8.18;100.00
63907;BME280;50075;49.484;11.238;2023-12-29T07:09:06;97807.00;;;8.09;100.00
63907;BME280;50075;49.484;11.238;2023-12-29T07:11:32;97808.75;;;8.13;100.00
63907;BME280;50075;49.484;11.238;2023-12-29T07:13:58;97811.38;;;8.24;100.00
63907;BME280;50075;49.484;11.238;2023-12-29T07:16:23;97815.69;;;8.20;100.00
63907;BME280;50075;49.484;11.238;2023-12-29T07:18:49;97814.81;;;8.15;100.00
63907;BME280;50075;49.484;11.238;2023-12-29T07:21:15;97819.16;;;8.27;100.00
63907;BME280;50075;49.484;11.238;2023-12-29T07:23:42;97813.19;;;8.52;100.00
63907;BME280;50075;49.484;11.238;2023-12-29T07:26:07;97822.69;;;8.46;100.00
63907;BME280;50075;49.484;11.238;2023-12-29T07:28:33;97823.53;;;8.52;100.00
63907;BME280;50075;49.484;11.238;2023-12-29T07:31:00;97828.78;;;8.58;100.00
63907;BME280;50075;49.484;11.238;2023-12-29T07:33:25;97817.50;;;8.48;100.00
63907;BME280;50075;49.484;11.238;2023-12-29T07:35:50;97818.41;;;8.63;100.00
63907;BME280;50075;49.484;11.238;2023-12-29T07:38:16;97824.50;;;8.65;100.00
63907;BME280;50075;49.484;11.238;2023-12-29T07:40:42;97824.47;;;8.58;100.00
63907;BME280;50075;49.484;11.238;2023-12-29T07:43:07;97821.03;;;8.58;100.00
63907;BME280;50075;49.484;11.238;2023-12-29T07:45:33;97816.69;;;8.58;100.00
63907;BME280;50075;49.484;11.238;2023-12-29T07:47:58;97827.03;;;8.58;100.00
63907;BME280;50075;49.484;11.238;2023-12-29T07:50:23;97830.53;;;8.68;100.00
63907;BME280;50075;49.484;11.238;2023-12-29T07:52:49;97837.47;;;8.74;100.00
63907;BME280;50075;49.484;11.238;2023-12-29T07:55:14;97837.47;;;8.91;100.00
63907;BME280;50075;49.484;11.238;2023-12-29T07:57:42;97834.88;;;9.04;100.00
63907;BME280;50075;49.484;11.238;2023-12-29T08:00:08;97840.09;;;9.08;100.00
63907;BME280;50075;49.484;11.238;2023-12-29T08:02:34;97838.34;;;9.12;100.00
63907;BME280;50075;49.484;11.238;2023-12-29T08:04:59;97831.44;;;9.19;100.00
63907;BME280;50075;49.484;11.238;2023-12-29T08:07:24;97853.91;;;9.12;100.00
63907;BME280;50075;49.484;11.238;2023-12-29T08:09:50;97854.81;;;9.16;100.00
63907;BME280;50075;49.484;11.238;2023-12-29T08:12:15;97852.19;;;9.20;100.00
63907;BME280;50075;49.484;11.238;2023-12-29T08:14:40;97858.22;;;9.24;100.00
63907;BME280;50075;49.484;11.238;2023-12-29T08:17:06;97867.75;;;9.17;100.00
63907;BME280;50075;49.484;11.238;2023-12-29T08:19:32;97869.47;;;9.32;100.00
63907;BME280;50075;49.484;11.238;2023-12-29T08:21:57;97869.50;;;9.51;100.00
63907;BME280;50075;49.484;11.238;2023-12-29T08:24:23;97872.09;;;9.37;100.00
63907;BME280;50075;49.484;11.238;2023-12-29T08:26:48;97879.00;;;9.30;100.00
63907;BME280;50075;49.484;11.238;2023-12-29T08:29:14;97878.16;;;9.34;100.00
63907;BME280;50075;49.484;11.238;2023-12-29T08:31:39;97866.03;;;9.55;100.00
63907;BME280;50075;49.484;11.238;2023-12-29T08:34:04;97874.63;;;9.65;100.00
63907;BME280;50075;49.484;11.238;2023-12-29T08:36:30;97872.91;;;9.62;100.00
63907;BME280;50075;49.484;11.238;2023-12-29T08:38:55;97874.66;;;9.56;100.00
63907;BME280;50075;49.484;11.238;2023-12-29T08:41:22;97874.63;;;9.77;100.00
63907;BME280;50075;49.484;11.238;2023-12-29T08:43:47;97884.19;;;9.66;100.00
63907;BME280;50075;49.484;11.238;2023-12-29T08:46:12;97877.22;;;9.76;100.00
63907;BME280;50075;49.484;11.238;2023-12-29T08:48:38;97879.69;;;10.27;100.00
63907;BME280;50075;49.484;11.238;2023-12-29T08:51:03;97887.75;;;11.36;100.00
63907;BME280;50075;49.484;11.238;2023-12-29T08:53:29;97893.50;;;11.74;100.00
63907;BME280;50075;49.484;11.238;2023-12-29T08:55:58;97886.25;;;12.02;100.00
63907;BME280;50075;49.484;11.238;2023-12-29T08:58:24;97897.06;;;12.48;100.00
63907;BME280;50075;49.484;11.238;2023-12-29T09:00:49;97891.56;;;13.30;100.00
63907;BME280;50075;49.484;11.238;2023-12-29T09:03:14;97899.94;;;12.28;100.00
63907;BME280;50075;49.484;11.238;2023-12-29T09:05:39;97900.31;;;13.27;100.00
63907;BME280;50075;49.484;11.238;2023-12-29T09:08:05;97904.00;;;13.13;100.00
63907;BME280;50075;49.484;11.238;2023-12-29T09:10:30;97896.69;;;12.76;100.00
63907;BME280;50075;49.484;11.238;2023-12-29T09:12:55;97901.81;;;12.13;100.00
63907;BME280;50075;49.484;11.238;2023-12-29T09:15:21;97899.41;;;11.90;100.00
63907;BME280;50075;49.484;11.238;2023-12-29T09:17:46;97899.28;;;12.02;100.00
63907;BME280;50075;49.484;11.238;2023-12-29T09:20:12;97903.19;;;11.57;100.00
63907;BME280;50075;49.484;11.238;2023-12-29T09:22:37;97906.78;;;11.44;100.00
63907;BME280;50075;49.484;11.238;2023-12-29T09:25:03;97906.78;;;11.44;100.00
63907;BME280;50075;49.484;11.238;2023-12-29T09:27:29;97894.59;;;11.49;100.00
63907;BME280;50075;49.484;11.238;2023-12-29T09:29:54;97902.19;;;11.72;100.00
63907;BME280;50075;49.484;11.238;2023-12-29T09:32:19;97889.25;;;11.63;100.00
63907;BME280;50075;49.484;11.238;2023-12-29T09:34:45;97892.03;;;11.43;100.00
63907;BME280;50075;49.484;11.238;2023-12-29T09:37:10;97883.44;;;11.35;100.00
63907;BME280;50075;49.484;11.238;2023-12-29T09:39:36;97884.13;;;11.54;100.00
63907;BME280;50075;49.484;11.238;2023-12-29T09:42:03;97888.38;;;11.61;100.00
63907;BME280;50075;49.484;11.238;2023-12-29T09:44:31;97889.22;;;11.66;100.00
63907;BME280;50075;49.484;11.238;2023-12-29T09:47:01;97882.41;;;11.51;100.00
63907;BME280;50075;49.484;11.238;2023-12-29T09:49:31;97889.41;;;11.44;100.00
63907;BME280;50075;49.484;11.238;2023-12-29T09:52:02;97880.66;;;11.52;100.00
63907;BME280;50075;49.484;11.238;2023-12-29T09:54:29;97876.38;;;11.44;100.00
63907;BME280;50075;49.484;11.238;2023-12-29T09:56:55;97870.66;;;11.00;100.00
63907;BME280;50075;49.484;11.238;2023-12-29T09:59:21;97868.66;;;11.35;100.00
63907;BME280;50075;49.484;11.238;2023-12-29T10:01:46;97868.00;;;11.10;100.00
63907;BME280;50075;49.484;11.238;2023-12-29T10:04:12;97860.94;;;11.24;100.00
63907;BME280;50075;49.484;11.238;2023-12-29T10:06:41;97865.13;;;11.41;100.00
63907;BME280;50075;49.484;11.238;2023-12-29T10:09:12;97860.94;;;11.21;100.00
63907;BME280;50075;49.484;11.238;2023-12-29T10:11:40;97852.09;;;11.45;100.00
63907;BME280;50075;49.484;11.238;2023-12-29T10:14:23;97854.59;;;11.53;100.00
63907;BME280;50075;49.484;11.238;2023-12-29T10:17:01;97852.03;;;11.52;100.00
63907;BME280;50075;49.484;11.238;2023-12-29T10:22:17;97846.75;;;11.58;100.00
63907;BME280;50075;49.484;11.238;2023-12-29T10:24:44;97846.81;;;11.49;100.00
63907;BME280;50075;49.484;11.238;2023-12-29T10:27:11;97847.81;;;11.33;100.00
63907;BME280;50075;49.484;11.238;2023-12-29T10:29:37;97847.81;;;11.33;100.00
63907;BME280;50075;49.484;11.238;2023-12-29T10:32:03;97847.09;;;11.19;100.00
63907;BME280;50075;49.484;11.238;2023-12-29T10:34:28;97854.06;;;11.15;100.00
63907;BME280;50075;49.484;11.238;2023-12-29T10:37:03;97847.09;;;11.16;100.00
63907;BME280;50075;49.484;11.238;2023-12-29T10:39:34;97852.31;;;11.19;100.00
63907;BME280;50075;49.484;11.238;2023-12-29T10:42:07;97846.44;;;10.89;100.00
63907;BME280;50075;49.484;11.238;2023-12-29T10:44:36;97839.47;;;10.94;100.00
63907;BME280;50075;49.484;11.238;2023-12-29T10:47:12;97839.38;;;11.10;100.00
63907;BME280;50075;49.484;11.238;2023-12-29T10:49:39;97841.94;;;11.13;100.00
63907;BME280;50075;49.484;11.238;2023-12-29T10:52:14;97833.91;;;11.36;100.00
63907;BME280;50075;49.484;11.238;2023-12-29T10:54:41;97836.66;;;11.24;100.00
63907;BME280;50075;49.484;11.238;2023-12-29T10:57:07;97833.91;;;11.38;100.00
63907;BME280;50075;49.484;11.238;2023-12-29T10:59:32;97825.16;;;11.48;100.00
63907;BME280;50075;49.484;11.238;2023-12-29T11:02:00;97823.34;;;11.53;100.00
63907;BME280;50075;49.484;11.238;2023-12-29T11:04:26;97821.19;;;11.93;100.00
63907;BME280;50075;49.484;11.238;2023-12-29T11:06:51;97821.47;;;11.68;100.00
63907;BME280;50075;49.484;11.238;2023-12-29T11:09:45;97823.59;;;11.25;100.00
63907;BME280;50075;49.484;11.238;2023-12-29T11:12:11;97811.22;;;11.51;100.00
63907;BME280;50075;49.484;11.238;2023-12-29T11:14:39;97815.94;;;11.10;100.00
63907;BME280;50075;49.484;11.238;2023-12-29T11:17:08;97802.84;;;11.17;100.00
63907;BME280;50075;49.484;11.238;2023-12-29T11:19:34;97796.78;;;11.17;100.00
63907;BME280;50075;49.484;11.238;2023-12-29T11:22:00;97788.16;;;11.10;100.00
63907;BME280;50075;49.484;11.238;2023-12-29T11:24:26;97789.41;;;11.61;100.00
63907;BME280;50075;49.484;11.238;2023-12-29T11:26:52;97776.41;;;11.59;100.00
63907;BME280;50075;49.484;11.238;2023-12-29T11:29:18;97783.25;;;11.70;100.00
63907;BME280;50075;49.484;11.238;2023-12-29T11:31:45;97789.34;;;11.67;100.00
63907;BME280;50075;49.484;11.238;2023-12-29T11:34:23;97794.75;;;11.49;100.00
63907;BME280;50075;49.484;11.238;2023-12-29T11:36:50;97789.41;;;11.59;100.00
63907;BME280;50075;49.484;11.238;2023-12-29T11:39:36;97797.31;;;11.52;100.00
63907;BME280;50075;49.484;11.238;2023-12-29T11:42:14;97784.72;;;11.91;100.00
63907;BME280;50075;49.484;11.238;2023-12-29T11:44:43;97782.97;;;11.95;100.00
63907;BME280;50075;49.484;11.238;2023-12-29T11:47:38;97776.41;;;12.33;100.00
63907;BME280;50075;49.484;11.238;2023-12-29T11:50:04;97782.00;;;12.67;100.00
63907;BME280;50075;49.484;11.238;2023-12-29T11:52:38;97774.00;;;12.18;100.00
63907;BME280;50075;49.484;11.238;2023-12-29T11:55:11;97768.41;;;12.46;100.00
63907;BME280;50075;49.484;11.238;2023-12-29T11:57:38;97760.72;;;12.36;100.00
63907;BME280;50075;49.484;11.238;2023-12-29T12:00:05;97772.34;;;12.12;100.00
63907;BME280;50075;49.484;11.238;2023-12-29T12:02:31;97758.38;;;12.18;100.00
63907;BME280;50075;49.484;11.238;2023-12-29T12:04:57;97763.75;;;12.05;100.00
63907;BME280;50075;49.484;11.238;2023-12-29T12:09:51;97759.91;;;12.89;100.00
63907;BME280;50075;49.484;11.238;2023-12-29T12:12:39;97751.88;;;13.02;100.00
63907;BME280;50075;49.484;11.238;2023-12-29T12:15:38;97752.03;;;12.93;100.00
63907;BME280;50075;49.484;11.238;2023-12-29T12:18:10;97751.94;;;12.99;100.00
63907;BME280;50075;49.484;11.238;2023-12-29T12:20:36;97742.19;;;13.09;100.00
63907;BME280;50075;49.484;11.238;2023-12-29T12:23:11;97741.38;;;13.05;100.00
63907;BME280;50075;49.484;11.238;2023-12-29T12:25:38;97738.47;;;13.22;100.00
63907;BME280;50075;49.484;11.238;2023-12-29T12:28:09;97731.16;;;12.91;100.00
63907;BME280;50075;49.484;11.238;2023-12-29T12:30:35;97728.97;;;13.67;100.00
63907;BME280;50075;49.484;11.238;2023-12-29T12:33:01;97726.63;;;13.53;100.00
63907;BME280;50075;49.484;11.238;2023-12-29T12:35:28;97726.22;;;13.26;100.00
63907;BME280;50075;49.484;11.238;2023-12-29T12:38:13;97721.19;;;13.62;100.00
63907;BME280;50075;49.484;11.238;2023-12-29T12:40:38;97721.34;;;13.56;100.00
63907;BME280;50075;49.484;11.238;2023-12-29T12:43:05;97718.63;;;14.03;100.00
63907;BME280;50075;49.484;11.238;2023-12-29T12:45:34;97725.38;;;13.73;100.00
63907;BME280;50075;49.484;11.238;2023-12-29T12:48:09;97714.06;;;13.71;100.00
63907;BME280;50075;49.484;11.238;2023-12-29T12:50:43;97716.25;;;13.47;100.00
63907;BME280;50075;49.484;11.238;2023-12-29T12:53:08;97722.34;;;13.47;100.00
63907;BME280;50075;49.484;11.238;2023-12-29T12:55:34;97710.06;;;13.52;100.00